This is the latest recevied weather packets stored in our database for station/object DC1NF-7. If no packets are shown the sender has not sent any weather packets the latest 10 day(s).
| Time | Temp. | Humidity | Pressure | Rain* | Wind** | Luminosity | Snow |
|---|---|---|---|---|---|---|---|
| 1777704347 | 13.33° C | 62% | 1024.1 hPa | 0 mm | - | 344 W/m² | - |
| 1777703747 | 13.33° C | 62% | 1024.2 hPa | 0 mm | - | 312 W/m² | - |
| 1777703138 | 12.22° C | 65% | 1024.3 hPa | 0 mm | - | 279 W/m² | - |
| 1777702536 | 11.11° C | 69% | 1024.2 hPa | 0 mm | - | 248 W/m² | - |
| 1777701929 | 10.56° C | 71% | 1024.3 hPa | 0 mm | - | 219 W/m² | - |
| 1777701328 | 10.56° C | 70% | 1024.2 hPa | 0 mm | - | 189 W/m² | - |
| 1777700721 | 10° C | 71% | 1024.3 hPa | 0 mm | - | 161 W/m² | - |
| 1777700120 | 8.89° C | 74% | 1024.4 hPa | 0 mm | - | 134 W/m² | - |
| 1777699577 | 7.78° C | 77% | 1024.3 hPa | 0 mm | - | 109 W/m² | - |
| 1777698971 | 8.89° C | 73% | 1024.4 hPa | 0 mm | - | 90 W/m² | - |
| 1777698370 | 8.89° C | 73% | 1024.3 hPa | 0 mm | - | 72 W/m² | - |
| 1777697763 | 8.33° C | 72% | 1024.2 hPa | 0 mm | - | 52 W/m² | - |
| 1777697159 | 6.11° C | 82% | 1024.3 hPa | 0 mm | - | 41 W/m² | - |
| 1777696563 | 4.44° C | 85% | 1024.3 hPa | 0 mm | - | 30 W/m² | - |
| 1777695952 | 3.89° C | 87% | 1024.4 hPa | 0 mm | - | 18 W/m² | - |
| 1777695349 | 4.44° C | 88% | 1024.3 hPa | 0 mm | - | 12 W/m² | - |
| 1777694746 | 3.89° C | 88% | 1024.3 hPa | 0 mm | - | 7 W/m² | - |
| 1777694145 | 3.89° C | 87% | 1024.3 hPa | 0 mm | - | 3 W/m² | - |
| 1777693539 | 4.44° C | 85% | 1024.4 hPa | 0 mm | - | 1 W/m² | - |
| 1777692938 | 5° C | 86% | 1024.4 hPa | 0 mm | - | 0 W/m² | - |
| 1777692334 | 4.44° C | 86% | 1024.5 hPa | 0 mm | - | 0 W/m² | - |
| 1777691730 | 4.44° C | 85% | 1024.4 hPa | 0 mm | - | 0 W/m² | - |
| 1777691126 | 4.44° C | 85% | 1024.7 hPa | 0 mm | - | 0 W/m² | - |
| 1777690523 | 5° C | 84% | 1024.6 hPa | 0 mm | - | 0 W/m² | - |
| 1777689920 | 5° C | 84% | 1024.6 hPa | 0 mm | - | 0 W/m² | - |
* Rain latest hour (hover to see other rain measurements)
** Current wind speed in m/s (hover to see current wind gust speed)